createdAt,value
2023-10-09T00:00:33.980Z,3.35
2023-10-09T00:03:02.709Z,3.53
2023-10-09T00:05:40.590Z,3.72
2023-10-09T00:08:10.604Z,4.88
2023-10-09T00:10:46.949Z,5.80
2023-10-09T00:13:16.810Z,2.63
2023-10-09T00:15:45.155Z,3.17
2023-10-09T00:18:13.853Z,3.92
2023-10-09T00:20:44.095Z,5.05
2023-10-09T00:23:17.253Z,2.30
2023-10-09T00:26:09.710Z,5.85
2023-10-09T00:28:42.719Z,4.18
2023-10-09T00:31:16.032Z,4.18
2023-10-09T00:33:44.733Z,4.80
2023-10-09T00:36:19.709Z,3.53
2023-10-09T00:38:52.401Z,3.25
2023-10-09T00:41:26.244Z,2.53
2023-10-09T00:44:00.563Z,5.68
2023-10-09T00:46:30.158Z,4.93
2023-10-09T00:49:04.165Z,5.78
2023-10-09T00:51:37.007Z,3.50
2023-10-09T00:54:15.451Z,2.70
2023-10-09T00:56:53.195Z,2.53
2023-10-09T00:59:25.960Z,2.90
2023-10-09T01:01:59.158Z,2.20
2023-10-09T01:04:33.788Z,2.75
2023-10-09T01:07:10.398Z,2.22
2023-10-09T01:09:39.253Z,2.00
2023-10-09T01:12:08.873Z,2.90
2023-10-09T01:14:42.179Z,1.63
2023-10-09T01:17:13.025Z,4.82
2023-10-09T01:19:44.293Z,3.10
2023-10-09T01:22:16.012Z,1.23
2023-10-09T01:24:45.523Z,2.58
2023-10-09T01:27:16.638Z,2.72
2023-10-09T01:29:47.794Z,3.20
2023-10-09T01:32:20.669Z,3.65
2023-10-09T01:34:51.077Z,2.58
2023-10-09T01:37:23.728Z,2.42
2023-10-09T01:40:00.488Z,2.60
2023-10-09T01:42:35.751Z,3.33
2023-10-09T01:45:17.327Z,1.95
2023-10-09T01:47:52.978Z,3.25
2023-10-09T01:50:23.548Z,2.90
2023-10-09T01:52:52.665Z,1.25
2023-10-09T01:55:34.321Z,2.97
2023-10-09T01:58:18.238Z,2.78
2023-10-09T02:00:50.501Z,3.15
2023-10-09T02:03:19.960Z,1.13
2023-10-09T02:05:50.806Z,1.67
2023-10-09T02:08:23.168Z,1.27
2023-10-09T02:10:56.307Z,1.80
2023-10-09T02:13:30.462Z,1.85
2023-10-09T02:16:14.550Z,2.67
2023-10-09T02:18:54.513Z,1.40
2023-10-09T02:21:33.997Z,2.05
2023-10-09T02:24:06.907Z,1.80
2023-10-09T02:27:02.653Z,1.83
2023-10-09T02:29:36.486Z,1.65
2023-10-09T02:32:14.993Z,1.42
2023-10-09T02:34:47.695Z,2.97
2023-10-09T02:37:16.092Z,3.00
2023-10-09T02:39:48.368Z,1.30
2023-10-09T02:42:28.085Z,1.42
2023-10-09T02:44:57.447Z,2.63
2023-10-09T02:47:30.908Z,1.38
2023-10-09T02:50:07.816Z,2.50
2023-10-09T02:52:42.342Z,3.05
2023-10-09T02:55:15.310Z,4.15
2023-10-09T02:57:46.531Z,1.83
2023-10-09T03:00:20.755Z,1.92
2023-10-09T03:02:51.474Z,2.25
2023-10-09T03:05:21.984Z,1.58
2023-10-09T03:07:51.369Z,1.73
2023-10-09T03:10:19.512Z,1.95
2023-10-09T03:12:52.986Z,3.03
2023-10-09T03:15:21.607Z,1.40
2023-10-09T03:17:50.501Z,1.20
2023-10-09T03:20:19.785Z,1.83
2023-10-09T03:22:49.356Z,3.30
2023-10-09T03:25:18.294Z,1.85
2023-10-09T03:27:48.173Z,2.78
2023-10-09T03:30:24.063Z,1.38
2023-10-09T03:32:53.573Z,1.73
2023-10-09T03:35:27.421Z,1.02
2023-10-09T03:38:01.375Z,1.10
2023-10-09T03:40:29.957Z,2.03
2023-10-09T03:43:02.501Z,3.38
2023-10-09T03:45:32.817Z,3.20
2023-10-09T03:48:07.032Z,1.15
2023-10-09T03:50:38.754Z,1.13
2023-10-09T03:53:09.191Z,0.87
2023-10-09T03:55:39.605Z,1.25
2023-10-09T03:58:13.031Z,4.25
2023-10-09T04:00:47.004Z,1.67
2023-10-09T04:03:17.002Z,1.83
2023-10-09T04:05:45.964Z,1.00
2023-10-09T04:08:20.639Z,1.37
2023-10-09T04:10:58.861Z,0.80
2023-10-09T04:13:35.035Z,1.13
2023-10-09T04:16:12.596Z,1.20
2023-10-09T04:18:41.535Z,4.28
2023-10-09T04:21:20.894Z,0.80
2023-10-09T04:24:06.965Z,1.40
2023-10-09T04:26:36.334Z,2.83
2023-10-09T04:29:06.836Z,0.95
2023-10-09T04:31:38.636Z,0.87
2023-10-09T04:34:36.101Z,2.17
2023-10-09T04:37:20.972Z,2.40
2023-10-09T04:39:48.443Z,1.00
2023-10-09T04:42:37.021Z,1.07
2023-10-09T04:45:37.033Z,1.23
2023-10-09T04:48:10.268Z,1.55
2023-10-09T04:51:04.326Z,0.63
2023-10-09T04:53:40.562Z,1.33
2023-10-09T04:56:16.800Z,1.30
2023-10-09T04:58:47.343Z,1.50
2023-10-09T05:01:23.222Z,1.47
2023-10-09T05:03:58.213Z,1.27
2023-10-09T05:06:51.524Z,4.37
2023-10-09T05:09:21.778Z,1.40
2023-10-09T05:11:57.599Z,1.33
2023-10-09T05:14:40.038Z,1.10
2023-10-09T05:17:17.331Z,0.70
2023-10-09T05:19:56.106Z,0.90
2023-10-09T05:22:38.900Z,3.27
2023-10-09T05:25:17.477Z,1.10
2023-10-09T05:27:51.950Z,1.30
2023-10-09T05:30:27.111Z,1.23
2023-10-09T05:33:00.006Z,2.03
2023-10-09T05:36:00.653Z,2.13
2023-10-09T05:38:31.920Z,1.37
2023-10-09T05:41:19.146Z,4.97
2023-10-09T05:44:04.625Z,2.10
2023-10-09T05:46:37.950Z,1.33
2023-10-09T05:49:21.356Z,0.83
2023-10-09T05:51:54.422Z,1.17
2023-10-09T05:54:39.994Z,1.70
2023-10-09T05:57:25.383Z,0.67
2023-10-09T06:00:10.988Z,1.97
2023-10-09T06:03:02.138Z,0.93
2023-10-09T06:05:52.841Z,0.77
2023-10-09T06:08:26.187Z,1.00
2023-10-09T06:11:07.136Z,1.07
2023-10-09T06:13:47.162Z,0.93
2023-10-09T06:16:42.745Z,1.97
2023-10-09T06:19:14.542Z,0.80
2023-10-09T06:22:07.838Z,1.58
2023-10-09T06:24:42.955Z,2.90
2023-10-09T06:27:15.018Z,2.97
2023-10-09T06:30:14.282Z,2.55
2023-10-09T06:32:51.743Z,1.10
2023-10-09T06:35:23.256Z,1.00
2023-10-09T06:38:11.497Z,0.98
2023-10-09T06:41:12.997Z,1.87
2023-10-09T06:43:49.058Z,1.13
2023-10-09T06:46:44.355Z,1.00
2023-10-09T06:49:41.471Z,1.45
2023-10-09T06:52:38.338Z,1.00
2023-10-09T06:55:20.341Z,0.75
2023-10-09T06:57:50.360Z,1.13
2023-10-09T07:00:36.391Z,1.10
2023-10-09T07:03:12.825Z,1.30
2023-10-09T07:06:01.868Z,1.80
2023-10-09T07:08:38.031Z,2.20
2023-10-09T07:11:54.767Z,1.10
2023-10-09T07:14:54.956Z,3.83
2023-10-09T07:17:44.198Z,1.45
2023-10-09T07:20:16.919Z,0.68
2023-10-09T07:23:14.902Z,1.60
2023-10-09T07:25:56.088Z,1.40
2023-10-09T07:28:38.215Z,1.48
2023-10-09T07:31:10.358Z,1.20
2023-10-09T07:36:39.288Z,0.98
2023-10-09T07:39:18.788Z,0.80
2023-10-09T07:41:56.917Z,0.85
2023-10-09T07:44:39.509Z,1.92
2023-10-09T07:47:24.054Z,2.33
2023-10-09T07:49:55.430Z,1.73
2023-10-09T07:52:27.447Z,1.20
2023-10-09T07:55:02.874Z,1.15
2023-10-09T07:57:40.765Z,2.38
2023-10-09T08:00:29.751Z,1.05
2023-10-09T08:03:01.614Z,1.08
2023-10-09T08:05:34.692Z,0.93
2023-10-09T08:08:36.106Z,1.73
2023-10-09T08:11:26.819Z,1.30
2023-10-09T08:14:03.969Z,0.93
2023-10-09T08:16:40.444Z,1.17
2023-10-09T08:19:33.741Z,1.73
2023-10-09T08:22:34.922Z,0.80
2023-10-09T08:25:04.797Z,2.45
2023-10-09T08:27:56.036Z,2.70
2023-10-09T08:30:42.222Z,1.10
2023-10-09T08:36:06.831Z,0.60
2023-10-09T08:38:35.706Z,0.80
2023-10-09T08:41:18.992Z,3.80
2023-10-09T08:43:52.622Z,0.88
2023-10-09T08:46:28.282Z,1.13
2023-10-09T08:48:58.099Z,2.03
2023-10-09T08:51:27.430Z,2.05
2023-10-09T08:53:55.813Z,1.42
2023-10-09T08:56:25.537Z,1.25
2023-10-09T08:58:54.284Z,3.38
2023-10-09T09:01:24.007Z,1.27
2023-10-09T09:03:52.983Z,1.70
2023-10-09T09:06:21.465Z,1.23
2023-10-09T09:08:49.906Z,0.80
2023-10-09T09:11:23.747Z,1.08
2023-10-09T09:14:07.952Z,0.70
2023-10-09T09:16:37.988Z,0.82
2023-10-09T09:19:19.019Z,0.70
2023-10-09T09:21:55.824Z,2.22
2023-10-09T09:24:34.552Z,1.27
2023-10-09T09:27:14.223Z,1.50
2023-10-09T09:29:49.357Z,1.63
2023-10-09T09:32:21.898Z,0.82
2023-10-09T09:34:55.649Z,1.20
2023-10-09T09:37:29.969Z,1.58
2023-10-09T09:40:02.109Z,1.50
2023-10-09T09:42:33.714Z,2.83
2023-10-09T09:45:05.259Z,0.88
2023-10-09T09:47:37.247Z,2.13
2023-10-09T09:50:15.084Z,2.58
2023-10-09T09:52:43.445Z,1.98
2023-10-09T09:55:19.347Z,4.00
2023-10-09T09:57:53.097Z,1.00
2023-10-09T10:00:32.128Z,1.17
2023-10-09T10:03:07.151Z,1.30
2023-10-09T10:05:36.811Z,1.35
2023-10-09T10:08:13.485Z,1.23
2023-10-09T10:10:51.489Z,3.83
2023-10-09T10:13:29.150Z,1.27
2023-10-09T10:16:11.558Z,1.13
2023-10-09T10:18:57.327Z,1.40
2023-10-09T10:21:39.085Z,1.63
2023-10-09T10:24:29.580Z,2.55
2023-10-09T10:27:25.321Z,1.63
2023-10-09T10:30:27.080Z,1.10
2023-10-09T10:33:10.651Z,1.30
2023-10-09T10:35:47.517Z,2.05
2023-10-09T10:38:34.130Z,1.27
2023-10-09T10:41:13.834Z,1.58
2023-10-09T10:44:22.101Z,1.90
2023-10-09T10:46:53.619Z,2.08
2023-10-09T10:49:27.641Z,2.10
2023-10-09T10:52:02.884Z,2.05
2023-10-09T10:55:06.821Z,4.03
2023-10-09T10:57:57.293Z,1.42
2023-10-09T11:00:41.773Z,1.85
2023-10-09T11:03:18.766Z,2.83
2023-10-09T11:05:53.084Z,1.30
2023-10-09T11:08:31.706Z,2.58
2023-10-09T11:11:16.946Z,2.05
2023-10-09T11:13:59.050Z,1.63
2023-10-09T11:16:50.805Z,2.20
2023-10-09T11:19:32.850Z,2.63
2023-10-09T11:22:33.159Z,2.25
2023-10-09T11:25:13.851Z,3.83
2023-10-09T11:27:51.424Z,3.88
2023-10-09T11:30:34.217Z,3.65
2023-10-09T11:33:06.323Z,2.80
2023-10-09T11:35:36.145Z,2.88
2023-10-09T11:38:22.403Z,2.88
2023-10-09T11:41:07.396Z,2.40
2023-10-09T11:43:53.912Z,1.70
2023-10-09T11:46:49.732Z,2.83
2023-10-09T11:49:33.487Z,3.22
2023-10-09T11:52:26.105Z,3.35
2023-10-09T11:54:57.762Z,3.20
2023-10-09T11:57:32.039Z,1.88
2023-10-09T12:00:01.119Z,2.05
2023-10-09T12:02:29.716Z,2.60
2023-10-09T12:04:58.337Z,2.45
2023-10-09T12:07:28.939Z,2.40
2023-10-09T12:09:58.624Z,2.40
2023-10-09T12:12:28.322Z,1.73
2023-10-09T12:14:57.010Z,1.88
2023-10-09T12:17:27.779Z,2.75
2023-10-09T12:19:57.651Z,1.95
2023-10-09T12:22:28.743Z,1.90
2023-10-09T12:24:58.379Z,1.25
2023-10-09T12:27:26.630Z,1.85
2023-10-09T12:29:58.179Z,1.80
2023-10-09T12:32:37.534Z,1.40
2023-10-09T12:35:18.345Z,1.27
2023-10-09T12:37:47.296Z,1.85
2023-10-09T12:40:25.252Z,1.00
2023-10-09T12:42:56.942Z,1.67
2023-10-09T12:45:27.428Z,1.20
2023-10-09T12:48:00.587Z,1.75
2023-10-09T12:50:35.055Z,0.80
2023-10-09T12:53:08.268Z,1.30
2023-10-09T12:55:41.616Z,1.55
2023-10-09T12:58:13.011Z,2.00
2023-10-09T13:00:45.671Z,2.05
2023-10-09T13:03:20.092Z,1.90
2023-10-09T13:05:56.527Z,2.10
2023-10-09T13:08:32.560Z,1.40
2023-10-09T13:11:12.110Z,1.10
2023-10-09T13:13:42.780Z,1.95
2023-10-09T13:16:15.130Z,1.85
2023-10-09T13:18:51.255Z,1.40
2023-10-09T13:21:21.469Z,0.88
2023-10-09T13:23:52.284Z,1.25
2023-10-09T13:26:33.761Z,1.08
2023-10-09T13:29:04.448Z,1.30
2023-10-09T13:31:38.954Z,2.10
2023-10-09T13:34:11.224Z,3.13
2023-10-09T13:36:39.955Z,1.30
2023-10-09T13:39:25.606Z,2.72
2023-10-09T13:42:01.193Z,1.20
2023-10-09T13:44:30.006Z,2.00
2023-10-09T13:46:59.249Z,1.30
2023-10-09T13:49:31.541Z,1.20
2023-10-09T13:52:02.642Z,1.40
2023-10-09T13:54:40.901Z,3.45
2023-10-09T13:57:12.250Z,1.50
2023-10-09T13:59:44.903Z,1.75
2023-10-09T14:02:19.160Z,1.30
2023-10-09T14:04:49.000Z,2.95
2023-10-09T14:07:19.477Z,1.80
2023-10-09T14:09:56.841Z,4.13
2023-10-09T14:12:31.076Z,1.95
2023-10-09T14:14:59.639Z,4.00
2023-10-09T14:17:29.796Z,3.60
2023-10-09T14:20:20.376Z,2.20
2023-10-09T14:22:53.963Z,3.67
2023-10-09T14:25:23.069Z,2.97
2023-10-09T14:27:54.306Z,2.00
2023-10-09T14:30:31.950Z,2.08
2023-10-09T14:33:03.226Z,3.22
2023-10-09T14:35:34.570Z,3.70
2023-10-09T14:38:06.397Z,2.67
2023-10-09T14:40:34.928Z,4.45
2023-10-09T14:43:04.624Z,2.88
2023-10-09T14:45:32.869Z,2.30
2023-10-09T14:48:01.806Z,5.82
2023-10-09T14:50:30.316Z,3.50
2023-10-09T14:53:02.449Z,4.70
2023-10-09T14:55:32.963Z,2.65
2023-10-09T14:58:01.126Z,4.43
2023-10-09T15:00:35.298Z,5.35
2023-10-09T15:03:04.483Z,3.05
2023-10-09T15:05:36.247Z,4.43
2023-10-09T15:08:05.370Z,2.05
2023-10-09T15:10:33.565Z,5.07
2023-10-09T15:13:01.758Z,2.83
2023-10-09T15:15:32.360Z,3.92
2023-10-09T15:18:00.461Z,7.18
2023-10-09T15:20:29.207Z,2.63
2023-10-09T15:22:57.818Z,3.47
2023-10-09T15:25:26.113Z,3.95
2023-10-09T15:27:54.245Z,7.00
2023-10-09T15:30:22.448Z,4.30
2023-10-09T15:32:52.086Z,5.10
2023-10-09T15:35:20.369Z,4.15
2023-10-09T15:37:48.577Z,5.05
2023-10-09T15:40:20.093Z,4.32
2023-10-09T15:42:55.447Z,3.92
2023-10-09T15:45:23.861Z,5.05
2023-10-09T15:47:53.831Z,4.45
2023-10-09T15:50:25.339Z,3.10
2023-10-09T15:52:55.229Z,3.55
2023-10-09T15:55:25.670Z,3.50
2023-10-09T15:57:55.816Z,3.45
2023-10-09T16:00:29.885Z,5.45
2023-10-09T16:03:02.178Z,3.13
2023-10-09T16:05:31.801Z,5.63
2023-10-09T16:08:01.577Z,4.22
2023-10-09T16:10:30.410Z,2.55
2023-10-09T16:12:59.130Z,3.35
2023-10-09T16:15:28.731Z,3.78
2023-10-09T16:18:04.501Z,3.83
2023-10-09T16:20:34.836Z,3.42
2023-10-09T16:23:06.201Z,5.57
2023-10-09T16:25:42.683Z,3.70
2023-10-09T16:28:11.751Z,4.47
2023-10-09T16:30:44.836Z,3.70
2023-10-09T16:33:18.051Z,5.57
2023-10-09T16:35:50.287Z,2.83
2023-10-09T16:38:18.790Z,3.83
2023-10-09T16:40:55.183Z,7.47
2023-10-09T16:43:26.962Z,4.05
2023-10-09T16:45:58.331Z,5.22
2023-10-09T16:48:29.033Z,4.70
2023-10-09T16:51:06.134Z,4.53
2023-10-09T16:53:38.043Z,8.68
2023-10-09T16:56:11.274Z,3.42
2023-10-09T16:58:40.567Z,5.30
2023-10-09T17:01:11.993Z,3.75
2023-10-09T17:03:44.173Z,4.80
2023-10-09T17:06:19.326Z,6.22
2023-10-09T17:08:49.386Z,7.60
2023-10-09T17:11:21.619Z,6.25
2023-10-09T17:13:50.803Z,5.78
2023-10-09T17:16:21.167Z,11.35
2023-10-09T17:18:50.126Z,3.97
2023-10-09T17:21:24.297Z,7.53
2023-10-09T17:23:55.016Z,8.13
2023-10-09T17:26:24.429Z,8.85
2023-10-09T17:28:53.818Z,4.93
2023-10-09T17:31:24.795Z,6.25
2023-10-09T17:33:55.227Z,10.10
2023-10-09T17:36:27.635Z,7.85
2023-10-09T17:38:56.575Z,6.53
2023-10-09T17:41:25.238Z,9.23
2023-10-09T17:43:53.544Z,10.55
2023-10-09T17:46:22.204Z,8.57
2023-10-09T17:48:52.086Z,26.55
2023-10-09T17:51:40.735Z,14.05
2023-10-09T17:54:10.564Z,11.95
2023-10-09T17:56:38.950Z,6.28
2023-10-09T17:59:12.918Z,3.83
2023-10-09T18:01:41.363Z,18.13
2023-10-09T18:04:11.275Z,7.15
2023-10-09T18:06:41.238Z,8.02
2023-10-09T18:09:17.163Z,2.70
2023-10-09T18:11:46.472Z,6.70
2023-10-09T18:14:15.475Z,3.75
2023-10-09T18:16:44.181Z,9.98
2023-10-09T18:19:15.855Z,14.38
2023-10-09T18:21:52.236Z,11.65
2023-10-09T18:24:26.808Z,11.18
2023-10-09T18:26:55.213Z,8.90
2023-10-09T18:29:25.632Z,13.45
2023-10-09T18:31:54.246Z,9.65
2023-10-09T18:34:22.894Z,14.50
2023-10-09T18:36:53.559Z,8.45
2023-10-09T18:39:24.029Z,11.00
2023-10-09T18:41:53.240Z,12.60
2023-10-09T18:44:22.435Z,16.33
2023-10-09T18:46:50.706Z,14.90
2023-10-09T18:49:19.348Z,15.00
2023-10-09T18:51:48.080Z,8.75
2023-10-09T18:54:17.579Z,4.60
2023-10-09T18:56:45.865Z,9.50
2023-10-09T18:59:15.737Z,12.30
2023-10-09T19:01:44.220Z,12.65
2023-10-09T19:04:14.058Z,13.48
2023-10-09T19:06:42.607Z,7.80
2023-10-09T19:09:13.243Z,9.88
2023-10-09T19:11:44.287Z,8.98
2023-10-09T19:14:14.172Z,9.65
2023-10-09T19:16:42.582Z,7.22
2023-10-09T19:19:13.802Z,7.72
2023-10-09T19:21:44.578Z,9.38
2023-10-09T19:24:14.045Z,10.25
2023-10-09T19:26:44.059Z,11.65
2023-10-09T19:29:12.929Z,8.68
2023-10-09T19:31:43.830Z,11.90
2023-10-09T19:34:14.699Z,10.13
2023-10-09T19:36:48.356Z,8.75
2023-10-09T19:39:18.476Z,10.40
2023-10-09T19:41:48.437Z,6.85
2023-10-09T19:44:18.818Z,5.85
2023-10-09T19:46:47.349Z,4.82
2023-10-09T19:49:15.949Z,9.13
2023-10-09T19:51:44.273Z,6.40
2023-10-09T19:54:12.677Z,6.93
2023-10-09T19:56:43.749Z,6.93
2023-10-09T19:59:13.924Z,6.68
2023-10-09T20:01:42.425Z,7.55
2023-10-09T20:04:10.604Z,6.10
2023-10-09T20:06:40.771Z,9.80
2023-10-09T20:09:13.771Z,7.80
2023-10-09T20:11:44.476Z,8.40
2023-10-09T20:14:14.364Z,10.88
2023-10-09T20:16:42.865Z,8.65
2023-10-09T20:19:11.501Z,8.15
2023-10-09T20:21:40.093Z,7.47
2023-10-09T20:24:08.816Z,7.38
2023-10-09T20:26:43.056Z,6.70
2023-10-09T20:29:14.878Z,8.55
2023-10-09T20:31:46.120Z,6.30
2023-10-09T20:34:14.524Z,8.70
2023-10-09T20:36:43.599Z,8.05
2023-10-09T20:39:12.592Z,9.48
2023-10-09T20:41:41.029Z,8.57
2023-10-09T20:44:11.672Z,6.20
2023-10-09T20:46:44.145Z,6.75
2023-10-09T20:49:15.757Z,11.35
2023-10-09T20:51:56.736Z,7.30
2023-10-09T20:54:26.699Z,8.88
2023-10-09T20:56:55.053Z,9.52
2023-10-09T20:59:24.165Z,6.80
2023-10-09T21:01:54.034Z,8.73
2023-10-09T21:04:22.381Z,15.10
2023-10-09T21:06:50.714Z,8.65
2023-10-09T21:09:19.038Z,11.68
2023-10-09T21:11:48.110Z,11.68
2023-10-09T21:14:18.354Z,7.78
2023-10-09T21:16:47.461Z,9.57
2023-10-09T21:19:17.442Z,8.27
2023-10-09T21:21:45.700Z,8.10
2023-10-09T21:24:15.144Z,6.05
2023-10-09T21:26:43.620Z,7.40
2023-10-09T21:29:13.012Z,5.28
2023-10-09T21:31:41.804Z,4.97
2023-10-09T21:34:11.818Z,5.53
2023-10-09T21:36:41.978Z,7.20
2023-10-09T21:39:10.907Z,6.38
2023-10-09T21:41:40.124Z,9.65
2023-10-09T21:44:14.736Z,10.25
2023-10-09T21:46:44.578Z,9.25
2023-10-09T21:49:13.050Z,8.82
2023-10-09T21:51:42.868Z,10.15
2023-10-09T21:54:11.016Z,5.18
2023-10-09T21:56:39.586Z,8.60
2023-10-09T21:59:10.608Z,7.47
2023-10-09T22:01:39.843Z,5.47
2023-10-09T22:04:08.688Z,4.72
2023-10-09T22:06:38.841Z,9.00
2023-10-09T22:09:08.859Z,5.72
2023-10-09T22:11:37.657Z,9.02
2023-10-09T22:14:06.521Z,9.65
2023-10-09T22:16:34.879Z,6.82
2023-10-09T22:19:13.927Z,7.35
2023-10-09T22:21:48.735Z,6.60
2023-10-09T22:24:22.088Z,4.75
2023-10-09T22:26:52.519Z,20.48
2023-10-09T22:29:21.062Z,7.72
2023-10-09T22:31:49.517Z,8.32
2023-10-09T22:34:21.039Z,14.20
2023-10-09T22:39:34.090Z,6.38
2023-10-09T22:42:04.717Z,6.70
2023-10-09T22:44:34.155Z,10.40
2023-10-09T22:47:08.598Z,5.82
2023-10-09T22:49:37.260Z,9.70
2023-10-09T22:52:12.261Z,8.40
2023-10-09T22:54:43.895Z,6.93
2023-10-09T22:57:14.074Z,5.53
2023-10-09T22:59:46.441Z,8.10
2023-10-09T23:02:23.451Z,5.43
2023-10-09T23:04:57.118Z,6.82
2023-10-09T23:07:25.540Z,7.82
2023-10-09T23:09:56.186Z,7.90
2023-10-09T23:12:36.623Z,6.18
2023-10-09T23:15:10.776Z,4.20
2023-10-09T23:17:49.509Z,8.65
2023-10-09T23:20:23.919Z,7.97
2023-10-09T23:22:53.147Z,6.55
2023-10-09T23:25:30.745Z,8.52
2023-10-09T23:30:59.620Z,7.55
2023-10-09T23:33:31.333Z,9.95
2023-10-09T23:36:06.069Z,8.68
2023-10-09T23:38:36.227Z,7.05
2023-10-09T23:41:10.815Z,8.93
2023-10-09T23:43:47.112Z,5.40
2023-10-09T23:46:19.051Z,5.38
2023-10-09T23:48:50.130Z,6.00
2023-10-09T23:51:20.798Z,9.10
2023-10-09T23:53:53.550Z,7.13
2023-10-09T23:56:36.070Z,4.78
2023-10-09T23:59:12.274Z,9.65
